East Franklin, North Carolina
Current Conditions -  °F | °C
As of 9:55 PM on Saturday 20 Dec 2014 (Local Time) from KRHP Reporting Station
Haze Haze  
Wind Chill: 43°   Ceiling: 800
Heat Index: 43°   Visibility: 3mi
Dew Point: 43°   Wind: 0mph
Humidity: 100%   Direction: NA
Pressure: 30.19"   Gusts: NA
Location:  35.1737°N, 83.4215°W
Report Text: KRHP 210255Z AUTO 00000KT 3SM BR OVC008 06/06 A3019 RMK AO2 T00610061
Loading
Personal Weather Stations






























Interactive Weather Map New forecast layout! Learn more

10-Day Weather Forecast

Advertisements
Track Severe Weather on mobile